Time;durP1;ratioP1;P1;durP2;ratioP2;P2;SDS_P1;SDS_P2;PMS_P1;PMS_P2;Temp;Humidity;BMP_temperature;BMP_pressure;BME280_temperature;BME280_humidity;BME280_pressure;Samples;Min_cycle;Max_cycle;Signal;HPM_P1;HPM_P2
2022/11/22 00:00:24;;;;;;;3.17;2.20;;;;;;;0.39;92.10;98403.97;1709965;83;21778;-82
2022/11/22 00:02:51;;;;;;;3.75;2.22;;;;;;;0.32;92.05;98410.69;1699251;84;21034;-82
2022/11/22 00:05:17;;;;;;;3.20;2.37;;;;;;;0.20;92.25;98416.52;1708451;83;21024;-83
2022/11/22 00:07:43;;;;;;;3.27;2.15;;;;;;;0.10;92.50;98419.11;1707570;83;21035;-84
2022/11/22 00:10:12;;;;;;;2.83;2.15;;;;;;;0.12;92.57;98418.49;1687728;84;21573;-84
2022/11/22 00:12:39;;;;;;;2.80;2.15;;;;;;;0.19;92.32;98423.53;1711438;83;21215;-83
2022/11/22 00:15:08;;;;;;;5.20;2.92;;;;;;;0.11;92.27;98420.74;1691195;82;21030;-77
2022/11/22 00:17:35;;;;;;;3.50;2.65;;;;;;;-0.04;92.34;98424.23;1704961;83;21550;-79
2022/11/22 00:20:01;;;;;;;3.30;2.30;;;;;;;-0.09;92.54;98428.20;1702691;82;21043;-79
2022/11/22 00:22:31;;;;;;;3.47;2.40;;;;;;;-0.01;92.60;98437.00;1674839;85;21046;-80
2022/11/22 00:24:57;;;;;;;3.60;2.60;;;;;;;-0.02;92.50;98430.60;1659126;85;21472;-80
2022/11/22 00:27:24;;;;;;;3.45;2.40;;;;;;;-0.10;92.80;98436.97;1650320;85;21106;-77
2022/11/22 00:29:50;;;;;;;2.72;2.22;;;;;;;-0.12;93.19;98442.80;1650109;85;21039;-79
2022/11/22 00:32:17;;;;;;;3.60;2.42;;;;;;;0.00;92.77;98441.77;1647635;85;21086;-76
2022/11/22 00:34:44;;;;;;;3.85;3.17;;;;;;;0.05;92.36;98436.13;1646670;87;21035;-79
2022/11/22 00:37:10;;;;;;;3.50;2.67;;;;;;;0.00;92.47;98435.23;1648293;85;21117;-80
2022/11/22 00:39:36;;;;;;;4.17;3.12;;;;;;;-0.06;92.60;98443.12;1647536;85;21074;-78
2022/11/22 00:42:03;;;;;;;3.50;2.83;;;;;;;-0.08;92.80;98446.34;1646772;87;21110;-78
2022/11/22 00:44:29;;;;;;;4.67;3.08;;;;;;;0.02;92.11;98442.91;1646757;85;21063;-75
2022/11/22 00:46:57;;;;;;;3.70;3.12;;;;;;;-0.02;91.64;98445.81;1663334;85;21079;-77
2022/11/22 00:49:23;;;;;;;4.30;3.40;;;;;;;-0.14;91.89;98449.45;1660039;85;21567;-78
2022/11/22 00:51:50;;;;;;;5.08;3.75;;;;;;;-0.26;92.23;98447.42;1647924;85;21590;-78
2022/11/22 00:54:16;;;;;;;4.37;3.33;;;;;;;-0.27;92.20;98436.66;1672856;85;21111;-76
2022/11/22 00:56:43;;;;;;;4.45;3.80;;;;;;;-0.22;91.93;98442.77;1675226;85;21035;-77
2022/11/22 00:59:10;;;;;;;5.78;4.40;;;;;;;-0.29;91.96;98433.80;1658637;85;21551;-77
2022/11/22 01:01:36;;;;;;;5.33;4.00;;;;;;;-0.36;92.46;98449.17;1649369;85;21196;-76
2022/11/22 01:04:03;;;;;;;4.35;3.30;;;;;;;-0.40;91.97;98451.70;1651504;85;21058;-78
2022/11/22 01:06:30;;;;;;;4.62;3.60;;;;;;;-0.35;91.86;98450.81;1648161;85;21062;-77
2022/11/22 01:08:56;;;;;;;5.05;4.30;;;;;;;-0.36;91.75;98447.05;1646727;87;21043;-77
2022/11/22 01:11:25;;;;;;;5.58;3.75;;;;;;;-0.45;91.82;98453.86;1646810;86;21059;-78
2022/11/22 01:13:51;;;;;;;3.90;3.45;;;;;;;-0.49;91.86;98455.08;1646642;87;21358;-76
2022/11/22 01:16:18;;;;;;;6.20;4.10;;;;;;;-0.42;91.61;98450.52;1652159;85;21516;-75
2022/11/22 01:18:45;;;;;;;4.62;3.98;;;;;;;-0.47;91.71;98443.55;1665452;84;21057;-76
2022/11/22 01:21:11;;;;;;;4.33;3.67;;;;;;;-0.53;91.55;98446.68;1669581;84;21566;-77
2022/11/22 01:23:38;;;;;;;4.42;4.00;;;;;;;-0.53;91.57;98453.69;1695132;82;21035;-76
2022/11/22 01:26:07;;;;;;;5.67;4.15;;;;;;;-0.46;91.38;98460.87;1684590;85;21265;-75
2022/11/22 01:28:35;;;;;;;4.95;4.00;;;;;;;-0.50;91.46;98458.17;1712421;83;21047;-73
2022/11/22 01:31:02;;;;;;;5.95;4.22;;;;;;;-0.55;91.63;98460.82;1688052;83;21055;-76
2022/11/22 01:33:28;;;;;;;4.90;3.90;;;;;;;-0.56;91.58;98459.15;1706584;83;21610;-77
2022/11/22 01:35:57;;;;;;;4.85;4.35;;;;;;;-0.48;91.29;98451.05;1688427;82;21045;-79
2022/11/22 01:38:24;;;;;;;6.15;4.75;;;;;;;-0.54;91.09;98457.23;1685103;83;22238;-78
2022/11/22 01:40:52;;;;;;;5.12;3.80;;;;;;;-0.66;91.21;98450.81;1684945;82;21701;-78
2022/11/22 01:43:24;;;;;;;6.00;4.72;;;;;;;-0.65;90.91;98473.80;1683849;85;21119;-79
2022/11/22 01:45:55;;;;;;;4.12;3.65;;;;;;;-0.66;90.61;98482.12;1684636;85;21602;-79
2022/11/22 01:48:44;;;;;;;6.10;4.60;;;;;;;-0.74;90.85;98487.13;1685276;83;21550;-76
2022/11/22 01:51:21;;;;;;;4.45;3.30;;;;;;;-0.81;90.97;98481.59;1710311;82;21085;-80
2022/11/22 01:53:48;;;;;;;4.95;4.20;;;;;;;-0.74;90.71;98479.30;1687954;83;21051;-77
2022/11/22 01:56:16;;;;;;;4.60;3.83;;;;;;;-0.78;90.50;98485.72;1685949;82;21036;-80
2022/11/22 01:58:44;;;;;;;4.62;3.80;;;;;;;-0.91;90.51;98490.29;1684061;84;21044;-80
2022/11/22 02:01:10;;;;;;;5.10;3.98;;;;;;;-0.92;90.50;98489.95;1684213;85;21058;-79
2022/11/22 02:03:38;;;;;;;5.55;4.65;;;;;;;-0.88;90.49;98497.88;1684534;82;21531;-79
2022/11/22 02:06:05;;;;;;;5.15;4.05;;;;;;;-0.97;90.66;98484.28;1641740;87;21044;-79
2022/11/22 02:08:57;;;;;;;5.80;3.83;;;;;;;-1.02;90.90;98478.97;1691731;83;21254;-79
2022/11/22 02:11:24;;;;;;;4.10;3.65;;;;;;;-1.02;91.03;98485.98;1695344;83;21038;-77
2022/11/22 02:13:50;;;;;;;4.53;3.55;;;;;;;-0.94;90.90;98494.47;1684175;85;21039;-76
2022/11/22 02:16:18;;;;;;;4.65;4.00;;;;;;;-1.00;90.74;98491.41;1689974;83;21047;-77
2022/11/22 02:18:46;;;;;;;5.10;4.33;;;;;;;-1.08;90.92;98500.33;1697937;82;21027;-77
2022/11/22 02:21:13;;;;;;;6.65;5.10;;;;;;;-1.07;90.88;98496.76;1685534;83;21055;-77
2022/11/22 02:23:59;;;;;;;5.10;4.10;;;;;;;-1.11;90.79;98504.48;1684596;83;21083;-75
2022/11/22 02:26:26;;;;;;;5.53;4.50;;;;;;;-1.09;90.70;98499.97;1686798;83;21090;-77
2022/11/22 02:28:56;;;;;;;5.85;4.37;;;;;;;-1.13;90.41;98506.38;1710893;82;21958;-77
2022/11/22 02:31:43;;;;;;;6.22;4.47;;;;;;;-1.17;90.29;98510.20;1699112;83;21079;-80
2022/11/22 02:34:10;;;;;;;5.78;4.85;;;;;;;-1.14;90.13;98521.69;1684146;85;21634;-77
2022/11/22 02:36:46;;;;;;;5.50;4.30;;;;;;;-1.26;90.15;98520.87;1685963;83;21062;-77
2022/11/22 02:39:17;;;;;;;6.08;5.00;;;;;;;-1.27;90.24;98528.83;1685397;82;21061;-76
2022/11/22 02:41:43;;;;;;;7.42;5.75;;;;;;;-1.24;90.22;98528.08;1688494;83;21125;-76
2022/11/22 02:44:10;;;;;;;6.87;5.03;;;;;;;-1.32;90.61;98520.55;1691933;83;21020;-76
2022/11/22 02:46:52;;;;;;;6.33;5.28;;;;;;;-1.32;90.73;98516.16;1690992;82;21031;-75
2022/11/22 02:49:22;;;;;;;6.50;5.70;;;;;;;-1.33;90.85;98524.09;1684867;85;21086;-77
2022/11/22 02:51:50;;;;;;;7.37;5.50;;;;;;;-1.30;90.89;98522.55;1684908;83;21064;-77
2022/11/22 02:54:16;;;;;;;6.37;5.33;;;;;;;-1.32;90.83;98530.48;1684320;83;21126;-78
2022/11/22 02:56:43;;;;;;;8.10;5.53;;;;;;;-1.31;90.60;98520.42;1685189;83;21031;-77
2022/11/22 02:59:09;;;;;;;6.75;6.00;;;;;;;-1.32;90.57;98530.48;1687994;82;21023;-77
2022/11/22 03:01:36;;;;;;;8.40;6.60;;;;;;;-1.34;90.60;98543.29;1698896;83;21008;-80
2022/11/22 03:04:03;;;;;;;8.98;6.37;;;;;;;-1.28;90.39;98535.80;1691481;83;21050;-78
2022/11/22 03:06:30;;;;;;;8.75;6.30;;;;;;;-1.33;90.46;98541.02;1689497;83;21126;-78
2022/11/22 03:08:58;;;;;;;8.35;6.30;;;;;;;-1.35;90.60;98546.83;1684703;82;21066;-78
2022/11/22 03:11:24;;;;;;;7.62;5.95;;;;;;;-1.38;90.48;98547.91;1684198;82;21014;-76
2022/11/22 03:13:51;;;;;;;7.65;6.42;;;;;;;-1.40;90.50;98539.39;1685304;83;21102;-77
2022/11/22 03:16:17;;;;;;;8.65;6.72;;;;;;;-1.43;90.82;98544.38;1684192;84;21055;-78
2022/11/22 03:18:43;;;;;;;9.25;6.17;;;;;;;-1.43;90.84;98565.22;1706019;83;21343;-77
2022/11/22 03:21:12;;;;;;;8.03;6.47;;;;;;;-1.41;90.74;98572.44;1714313;83;21118;-77
2022/11/22 03:23:38;;;;;;;8.63;6.53;;;;;;;-1.45;90.83;98576.23;1717894;83;21103;-78
2022/11/22 03:26:09;;;;;;;8.50;6.95;;;;;;;-1.43;90.53;98577.40;1698002;83;21054;-76
2022/11/22 03:28:36;;;;;;;9.75;7.28;;;;;;;-1.44;90.41;98567.46;1693528;82;21090;-77
2022/11/22 03:31:06;;;;;;;8.75;6.25;;;;;;;-1.47;90.74;98576.84;1689466;84;21102;-79
2022/11/22 03:33:33;;;;;;;9.93;6.95;;;;;;;-1.46;90.85;98587.59;1690479;83;21028;-78
2022/11/22 03:36:00;;;;;;;9.50;6.85;;;;;;;-1.43;90.59;98584.77;1692223;83;21090;-76
2022/11/22 03:38:27;;;;;;;9.38;6.95;;;;;;;-1.47;90.74;98585.95;1689200;85;21067;-78
2022/11/22 03:40:53;;;;;;;8.88;6.55;;;;;;;-1.44;90.65;98576.58;1705167;83;21499;-77
2022/11/22 03:43:20;;;;;;;8.05;5.90;;;;;;;-1.45;90.71;98584.05;1690804;83;21138;-78
2022/11/22 03:45:47;;;;;;;7.78;5.80;;;;;;;-1.43;90.59;98578.25;1681464;82;21036;-79
2022/11/22 03:48:13;;;;;;;9.55;7.47;;;;;;;-1.42;90.32;98584.28;1678599;83;21634;-80
2022/11/22 03:50:40;;;;;;;8.58;6.30;;;;;;;-1.45;90.17;98590.57;1689643;85;21560;-83
2022/11/22 03:53:06;;;;;;;8.18;6.03;;;;;;;-1.49;90.23;98586.52;1691215;83;21044;-81
2022/11/22 03:55:33;;;;;;;8.30;5.78;;;;;;;-1.47;90.18;98591.62;1704072;83;21163;-81
2022/11/22 03:57:59;;;;;;;7.70;5.85;;;;;;;-1.46;90.30;98594.11;1689197;82;21259;-81
2022/11/22 04:00:26;;;;;;;8.10;5.87;;;;;;;-1.48;89.98;98603.82;1689889;83;21080;-79
2022/11/22 04:02:53;;;;;;;6.83;5.50;;;;;;;-1.52;89.38;98608.92;1690249;83;21015;-78
2022/11/22 04:05:19;;;;;;;6.87;5.67;;;;;;;-1.55;89.26;98616.14;1690901;83;21062;-81
2022/11/22 04:07:47;;;;;;;7.47;6.05;;;;;;;-1.64;89.66;98615.91;1716842;83;21198;-79
2022/11/22 04:10:14;;;;;;;7.17;5.60;;;;;;;-1.63;89.59;98628.45;1717448;83;21193;-78
2022/11/22 04:12:42;;;;;;;6.78;5.50;;;;;;;-1.67;89.77;98625.73;1716639;83;21079;-81
2022/11/22 04:15:09;;;;;;;7.58;5.97;;;;;;;-1.66;89.75;98615.20;1698654;82;20987;-80
2022/11/22 04:17:42;;;;;;;6.87;5.50;;;;;;;-1.67;89.94;98624.42;1690779;83;21074;-80
2022/11/22 04:23:13;;;;;;;7.75;5.35;;;;;;;-1.66;89.81;98619.55;1684173;84;21030;-76
2022/11/22 04:25:44;;;;;;;7.70;5.90;;;;;;;-1.67;89.67;98625.25;1700079;83;21122;-76
2022/11/22 04:28:12;;;;;;;9.05;7.12;;;;;;;-1.67;89.60;98608.80;1713085;83;21067;-77
2022/11/22 04:33:25;;;;;;;7.90;5.65;;;;;;;-1.70;89.81;98614.23;1687441;83;21400;-77
2022/11/22 04:35:51;;;;;;;7.65;6.40;;;;;;;-1.73;89.97;98609.28;1684723;85;21097;-77
2022/11/22 04:38:17;;;;;;;8.65;6.40;;;;;;;-1.71;89.81;98610.81;1695275;83;21063;-78
2022/11/22 04:40:44;;;;;;;9.48;7.10;;;;;;;-1.70;90.16;98615.53;1703094;83;21046;-78
2022/11/22 04:46:11;;;;;;;7.12;5.70;;;;;;;-1.68;89.97;98634.02;1684311;83;21235;-78
2022/11/22 04:48:37;;;;;;;8.50;6.42;;;;;;;-1.66;90.03;98645.60;1684957;83;21535;-79
2022/11/22 04:53:50;;;;;;;9.65;7.17;;;;;;;-1.69;89.85;98658.39;1685035;83;21052;-77
2022/11/22 04:56:17;;;;;;;9.95;7.00;;;;;;;-1.67;89.83;98650.47;1684420;83;21538;-77
2022/11/22 04:58:44;;;;;;;9.05;6.33;;;;;;;-1.71;90.03;98652.95;1684356;83;21117;-78
2022/11/22 05:01:10;;;;;;;8.60;6.95;;;;;;;-1.68;90.10;98651.41;1684811;83;21082;-79
2022/11/22 05:03:38;;;;;;;9.15;7.08;;;;;;;-1.70;90.18;98653.30;1685084;82;21084;-78
2022/11/22 05:06:05;;;;;;;8.10;6.33;;;;;;;-1.69;90.14;98654.97;1686642;83;21019;-78
2022/11/22 05:08:33;;;;;;;9.20;7.25;;;;;;;-1.67;90.15;98663.48;1685499;83;21051;-80
2022/11/22 05:11:01;;;;;;;10.20;8.18;;;;;;;-1.66;90.31;98659.92;1684375;83;21559;-80
2022/11/22 05:13:34;;;;;;;10.38;8.40;;;;;;;-1.61;90.21;98673.44;1684100;83;21091;-79
2022/11/22 05:16:04;;;;;;;10.32;8.48;;;;;;;-1.63;90.20;98674.03;1686934;83;21551;-80
2022/11/22 05:18:30;;;;;;;12.68;8.70;;;;;;;-1.61;89.99;98671.65;1694739;82;21019;-80
2022/11/22 05:20:58;;;;;;;8.75;7.50;;;;;;;-1.65;90.20;98671.53;1686157;83;21051;-80
2022/11/22 05:26:10;;;;;;;9.38;7.33;;;;;;;-1.61;90.17;98677.34;1718373;83;21004;-78
2022/11/22 05:28:37;;;;;;;9.08;7.03;;;;;;;-1.61;90.14;98678.16;1718099;83;21332;-78
2022/11/22 05:31:13;;;;;;;10.88;8.28;;;;;;;-1.59;90.12;98680.17;1700206;83;21519;-79
2022/11/22 05:33:41;;;;;;;8.18;6.47;;;;;;;-1.60;89.75;98678.53;1692230;82;21130;-77
2022/11/22 05:36:08;;;;;;;9.15;7.28;;;;;;;-1.64;89.66;98681.02;1690919;83;21157;-77
2022/11/22 05:38:36;;;;;;;9.45;7.22;;;;;;;-1.64;89.68;98678.89;1692063;83;21070;-79
2022/11/22 05:41:04;;;;;;;9.60;7.67;;;;;;;-1.65;89.73;98685.86;1691283;83;21094;-79
2022/11/22 05:43:31;;;;;;;11.30;8.50;;;;;;;-1.68;89.98;98680.05;1701765;83;21020;-82
2022/11/22 05:46:14;;;;;;;11.78;7.75;;;;;;;-1.66;89.72;98685.52;1690860;83;21043;-79
2022/11/22 05:48:42;;;;;;;8.50;7.28;;;;;;;-1.69;89.87;98687.03;1689354;83;21558;-78
2022/11/22 05:51:12;;;;;;;10.68;8.18;;;;;;;-1.67;89.94;98683.84;1693933;82;21130;-79
2022/11/22 05:53:39;;;;;;;9.48;7.45;;;;;;;-1.67;90.22;98685.14;1691413;83;21157;-77
2022/11/22 05:56:13;;;;;;;10.65;8.03;;;;;;;-1.63;90.34;98687.05;1703587;83;21073;-78
2022/11/22 05:58:40;;;;;;;8.10;7.00;;;;;;;-1.57;90.04;98697.47;1718425;83;21058;-79
2022/11/22 06:01:10;;;;;;;10.82;7.78;;;;;;;-1.51;89.87;98706.12;1698985;83;21833;-74
2022/11/22 06:03:37;;;;;;;10.55;7.92;;;;;;;-1.48;89.70;98700.69;1704279;82;21102;-74
2022/11/22 06:06:05;;;;;;;13.75;8.88;;;;;;;-1.46;89.66;98703.52;1693946;82;21095;-73
2022/11/22 06:08:33;;;;;;;11.68;8.20;;;;;;;-1.48;89.28;98711.92;1704265;83;21078;-72
2022/11/22 06:11:13;;;;;;;11.85;7.97;;;;;;;-1.48;89.40;98714.53;1689332;85;21579;-74
2022/11/22 06:13:42;;;;;;;10.63;7.78;;;;;;;-1.49;89.39;98714.64;1694589;82;21929;-74
2022/11/22 06:16:11;;;;;;;11.93;8.30;;;;;;;-1.48;89.36;98718.92;1698127;82;21047;-72
2022/11/22 06:18:37;;;;;;;10.82;7.60;;;;;;;-1.47;89.11;98715.36;1689192;82;21058;-73
2022/11/22 06:21:06;;;;;;;10.18;8.08;;;;;;;-1.51;89.07;98714.75;1690239;82;21071;-73
2022/11/22 06:23:33;;;;;;;11.08;7.72;;;;;;;-1.46;89.03;98720.45;1660909;84;21058;-74
2022/11/22 06:26:03;;;;;;;9.50;7.45;;;;;;;-1.50;89.24;98730.75;1649717;84;21128;-74
2022/11/22 06:28:30;;;;;;;9.95;7.53;;;;;;;-1.44;89.17;98738.58;1665463;86;21054;-74
2022/11/22 06:31:06;;;;;;;10.93;7.83;;;;;;;-1.44;89.16;98737.28;1650408;84;21039;-74
2022/11/22 06:33:33;;;;;;;16.57;9.28;;;;;;;-1.38;88.88;98745.92;1670141;84;21622;-73
2022/11/22 06:36:08;;;;;;;13.90;9.35;;;;;;;-1.41;88.91;98741.78;1661318;85;21098;-73
2022/11/22 06:38:35;;;;;;;15.72;11.08;;;;;;;-1.37;89.01;98737.17;1688557;83;21205;-73
2022/11/22 06:41:06;;;;;;;14.70;9.40;;;;;;;-1.36;88.98;98747.12;1688479;85;21043;-74
2022/11/22 06:43:35;;;;;;;13.88;9.58;;;;;;;-1.34;88.63;98751.73;1686710;85;21083;-72
2022/11/22 06:46:02;;;;;;;14.83;9.55;;;;;;;-1.35;88.29;98747.45;1688686;85;21614;-74
2022/11/22 06:48:30;;;;;;;21.62;13.10;;;;;;;-1.36;88.35;98748.42;1688283;85;21137;-71
2022/11/22 06:51:12;;;;;;;19.42;13.38;;;;;;;-1.36;88.19;98749.72;1671974;84;21142;-74
2022/11/22 06:53:40;;;;;;;16.93;10.72;;;;;;;-1.38;88.67;98748.53;1673372;85;21122;-75
2022/11/22 06:56:12;;;;;;;13.30;9.30;;;;;;;-1.36;88.49;98758.36;1668116;84;21109;-74
2022/11/22 06:58:40;;;;;;;12.33;9.15;;;;;;;-1.37;88.39;98763.23;1660775;85;21094;-74
2022/11/22 07:01:13;;;;;;;11.57;8.25;;;;;;;-1.40;88.70;98765.58;1673128;84;21055;-73
2022/11/22 07:03:40;;;;;;;15.10;9.45;;;;;;;-1.36;88.54;98767.96;1652033;85;21865;-74
2022/11/22 07:06:09;;;;;;;12.93;9.35;;;;;;;-1.34;88.36;98772.58;1672520;84;21071;-76
2022/11/22 07:08:36;;;;;;;12.07;9.05;;;;;;;-1.35;88.52;98780.87;1658111;84;21655;-73
2022/11/22 07:11:14;;;;;;;12.58;9.83;;;;;;;-1.32;88.35;98781.94;1665913;84;21539;-78
2022/11/22 07:13:40;;;;;;;11.55;9.33;;;;;;;-1.29;88.48;98782.20;1680488;84;21089;-76
2022/11/22 07:16:09;;;;;;;11.40;9.08;;;;;;;-1.28;88.50;98776.02;1651129;86;21214;-77
2022/11/22 07:18:36;;;;;;;12.00;9.55;;;;;;;-1.23;88.39;98785.62;1650856;84;21546;-76
2022/11/22 07:21:10;;;;;;;10.32;7.87;;;;;;;-1.21;88.31;98783.73;1672695;84;21511;-76
2022/11/22 07:23:38;;;;;;;11.83;8.98;;;;;;;-1.19;88.13;98787.05;1649417;84;21087;-77
2022/11/22 07:26:04;;;;;;;13.25;10.28;;;;;;;-1.16;88.03;98789.41;1684514;83;21027;-77
2022/11/22 07:28:30;;;;;;;12.23;9.15;;;;;;;-1.15;88.05;98794.99;1684844;85;21253;-77
2022/11/22 07:31:06;;;;;;;10.95;8.83;;;;;;;-1.13;87.30;98793.09;1701875;82;21043;-77
2022/11/22 07:33:34;;;;;;;10.50;8.13;;;;;;;-1.17;87.39;98794.77;1712060;83;21004;-76
2022/11/22 07:36:10;;;;;;;12.98;9.20;;;;;;;-1.19;87.74;98799.60;1713307;83;21015;-75
2022/11/22 07:38:37;;;;;;;10.88;8.73;;;;;;;-1.16;87.78;98802.44;1713222;82;21035;-76
2022/11/22 07:41:04;;;;;;;12.05;8.90;;;;;;;-1.11;87.65;98810.75;1713292;83;21161;-76
2022/11/22 07:43:32;;;;;;;11.15;9.08;;;;;;;-1.10;87.38;98816.33;1712694;83;21540;-77
2022/11/22 07:46:00;;;;;;;9.65;8.38;;;;;;;-1.08;87.60;98815.74;1705736;83;21089;-75
2022/11/22 07:48:27;;;;;;;11.20;8.93;;;;;;;-1.05;87.59;98824.61;1697426;82;21017;-76
2022/11/22 07:50:53;;;;;;;14.85;9.68;;;;;;;-1.04;87.39;98823.69;1709773;82;21566;-78
2022/11/22 07:53:20;;;;;;;13.03;9.10;;;;;;;-1.03;87.29;98814.90;1704383;83;21877;-76
2022/11/22 07:55:47;;;;;;;12.85;9.65;;;;;;;-1.03;87.33;98811.47;1713111;83;21004;-78
2022/11/22 07:58:14;;;;;;;12.03;8.80;;;;;;;-1.01;86.93;98805.66;1713708;82;21183;-79
2022/11/22 08:00:40;;;;;;;12.60;9.48;;;;;;;-1.02;87.11;98813.97;1707724;83;21116;-80
2022/11/22 08:03:07;;;;;;;16.62;10.32;;;;;;;-0.98;87.11;98812.44;1706490;83;21016;-78
2022/11/22 08:05:34;;;;;;;11.03;9.28;;;;;;;-0.96;86.75;98820.97;1688328;83;21135;-80
2022/11/22 08:08:00;;;;;;;13.98;9.30;;;;;;;-0.95;86.79;98822.61;1697992;82;21031;-80
2022/11/22 08:10:54;;;;;;;11.83;8.98;;;;;;;-0.92;86.27;98823.22;1711177;82;20977;-78
2022/11/22 08:13:24;;;;;;;14.73;10.23;;;;;;;-0.96;86.75;98813.97;1718805;82;21132;-78
2022/11/22 08:15:52;;;;;;;13.25;9.55;;;;;;;-0.92;86.80;98827.13;1713020;82;21138;-80
2022/11/22 08:18:21;;;;;;;11.50;9.10;;;;;;;-0.86;86.91;98825.83;1708980;82;21032;-78
2022/11/22 08:20:49;;;;;;;12.95;9.73;;;;;;;-0.83;86.81;98826.87;1704480;82;21103;-79
2022/11/22 08:23:16;;;;;;;12.55;8.78;;;;;;;-0.80;86.94;98830.56;1710373;83;21055;-78
2022/11/22 08:25:43;;;;;;;11.50;8.88;;;;;;;-0.75;87.06;98832.81;1725328;81;21055;-79
2022/11/22 08:28:10;;;;;;;11.57;9.25;;;;;;;-0.72;86.77;98840.41;1729879;82;21114;-79
2022/11/22 08:30:36;;;;;;;14.00;8.95;;;;;;;-0.71;86.54;98837.69;1730967;82;21152;-79
2022/11/22 08:33:03;;;;;;;11.85;9.05;;;;;;;-0.70;86.67;98835.90;1730467;81;21094;-78
2022/11/22 08:35:30;;;;;;;12.58;9.93;;;;;;;-0.64;86.42;98828.89;1729861;82;21499;-79
2022/11/22 08:37:57;;;;;;;12.25;9.20;;;;;;;-0.64;86.25;98831.05;1708855;82;21067;-79
2022/11/22 08:40:23;;;;;;;11.12;8.75;;;;;;;-0.57;86.03;98824.05;1718706;82;21070;-80
2022/11/22 08:42:54;;;;;;;9.88;8.48;;;;;;;-0.62;86.08;98827.85;1702738;82;21259;-78
2022/11/22 08:45:20;;;;;;;12.60;9.90;;;;;;;-0.61;86.02;98835.20;1713513;82;21109;-80
2022/11/22 08:47:47;;;;;;;12.25;9.68;;;;;;;-0.60;86.22;98833.78;1722295;82;21019;-78
2022/11/22 08:50:16;;;;;;;12.60;9.08;;;;;;;-0.55;86.21;98833.41;1711830;82;21022;-77
2022/11/22 08:52:42;;;;;;;10.48;8.25;;;;;;;-0.52;86.23;98838.85;1727966;82;21038;-78
2022/11/22 08:55:09;;;;;;;11.80;9.08;;;;;;;-0.53;85.78;98848.95;1727658;82;21124;-78
2022/11/22 08:57:37;;;;;;;13.05;8.63;;;;;;;-0.52;85.64;98844.06;1724988;82;21087;-79
2022/11/22 09:00:07;;;;;;;11.18;8.58;;;;;;;-0.57;85.88;98843.62;1718655;82;21558;-79
2022/11/22 09:02:35;;;;;;;11.97;8.68;;;;;;;-0.54;86.16;98835.53;1728737;82;21023;-79
2022/11/22 09:07:14;;;;;;;12.67;10.13;;;;;;;-0.42;85.78;98835.41;1793681;79;22744;-78
2022/11/22 09:09:41;;;;;;;12.82;10.18;;;;;;;-0.47;85.96;98841.45;1758549;81;21010;-80
2022/11/22 09:12:07;;;;;;;11.73;10.10;;;;;;;-0.45;86.07;98846.56;1757797;81;21213;-76
2022/11/22 09:14:34;;;;;;;11.65;9.45;;;;;;;-0.41;85.89;98849.28;1756776;81;21548;-78
2022/11/22 09:17:00;;;;;;;14.47;10.32;;;;;;;-0.39;85.58;98844.77;1757876;80;20995;-78
2022/11/22 09:19:27;;;;;;;12.45;8.73;;;;;;;-0.41;85.60;98851.44;1758028;80;21060;-78
2022/11/22 09:21:53;;;;;;;11.57;8.55;;;;;;;-0.40;85.21;98847.05;1723327;83;21021;-78
2022/11/22 09:24:21;;;;;;;13.18;9.75;;;;;;;-0.35;84.92;98849.28;1705725;81;21540;-78
2022/11/22 09:26:47;;;;;;;12.13;9.28;;;;;;;-0.36;85.70;98845.84;1680730;81;21031;-79
2022/11/22 09:29:14;;;;;;;12.55;10.55;;;;;;;-0.32;85.56;98852.48;1676892;83;21097;-77
2022/11/22 09:31:42;;;;;;;13.22;9.63;;;;;;;-0.25;85.15;98848.90;1713836;81;21041;-78
2022/11/22 09:34:10;;;;;;;13.83;9.90;;;;;;;-0.31;85.10;98850.70;1709956;84;21019;-79
2022/11/22 09:36:36;;;;;;;12.78;9.90;;;;;;;-0.28;85.00;98856.51;1715435;83;21097;-79
2022/11/22 09:39:03;;;;;;;11.83;10.10;;;;;;;-0.29;85.02;98861.84;1707704;83;21166;-76
2022/11/22 09:42:14;;;;;;;12.63;10.00;;;;;;;-0.29;84.99;98860.09;1703230;83;21079;-77
2022/11/22 09:45:05;;;;;;;13.58;10.50;;;;;;;-0.33;84.94;98861.28;1723156;82;21010;-80
2022/11/22 09:47:55;;;;;;;12.85;9.20;;;;;;;-0.37;84.95;98864.23;1716485;83;21087;-78
2022/11/22 09:51:02;;;;;;;10.98;9.15;;;;;;;-0.42;84.84;98874.56;1706863;82;21296;-77
2022/11/22 09:53:46;;;;;;;11.68;8.78;;;;;;;-0.44;84.89;98873.03;1717248;83;21474;-80
2022/11/22 09:56:15;;;;;;;12.15;9.33;;;;;;;-0.49;85.02;98872.55;1700889;83;20970;-79
2022/11/22 09:58:53;;;;;;;12.30;9.60;;;;;;;-0.41;84.89;98867.55;1705852;81;21062;-81
2022/11/22 10:01:37;;;;;;;13.10;9.30;;;;;;;-0.45;85.21;98876.09;1717348;81;21066;-77
2022/11/22 10:04:21;;;;;;;12.43;10.23;;;;;;;-0.48;85.64;98880.74;1717980;82;21126;-78
2022/11/22 10:06:53;;;;;;;11.28;9.05;;;;;;;-0.42;85.93;98881.08;1699757;83;21097;-79
2022/11/22 10:09:49;;;;;;;12.85;9.53;;;;;;;-0.39;85.60;98877.39;1678776;84;21766;-78
2022/11/22 10:12:33;;;;;;;12.30;10.13;;;;;;;-0.34;85.39;98885.70;1685783;84;21064;-81
2022/11/22 10:15:15;;;;;;;;;;;;;;;-0.39;85.64;98890.44;1678425;84;21175;-79
2022/11/22 10:17:57;;;;;;;11.97;9.23;;;;;;;-0.36;85.68;98894.13;1676341;84;21273;-76
2022/11/22 10:20:29;;;;;;;13.53;9.23;;;;;;;-0.37;85.47;98892.45;1682303;84;21075;-80
2022/11/22 10:22:56;;;;;;;13.18;9.90;;;;;;;-0.37;85.49;98899.46;1725507;82;21033;-80
2022/11/22 10:25:42;;;;;;;11.08;9.78;;;;;;;-0.39;85.62;98895.66;1740346;82;21067;-80
2022/11/22 10:28:20;;;;;;;11.18;9.08;;;;;;;-0.36;85.27;98901.96;1720938;82;21004;-79
2022/11/22 10:31:04;;;;;;;11.53;8.85;;;;;;;-0.38;85.21;98898.64;1725230;82;21098;-80
2022/11/22 10:33:51;;;;;;;12.07;8.58;;;;;;;-0.40;85.20;98899.23;1681419;85;21100;-80
2022/11/22 10:37:07;;;;;;;12.95;9.43;;;;;;;-0.40;85.26;98896.63;1680280;85;21034;-79
2022/11/22 10:40:15;;;;;;;11.45;8.45;;;;;;;-0.39;85.33;98902.19;1707274;84;21569;-81
2022/11/22 10:43:25;;;;;;;10.98;8.98;;;;;;;-0.37;85.42;98893.77;1720114;82;21030;-79
2022/11/22 10:46:06;;;;;;;12.68;8.85;;;;;;;-0.30;85.32;98897.56;1740864;82;21199;-81
2022/11/22 10:48:45;;;;;;;12.10;9.28;;;;;;;-0.37;85.45;98901.59;1680979;85;21035;-79
2022/11/22 10:51:50;;;;;;;11.35;8.85;;;;;;;-0.36;85.34;98901.96;1697101;83;21037;-79
2022/11/22 10:54:43;;;;;;;11.12;9.05;;;;;;;-0.40;85.44;98909.67;1729367;82;21040;-79
2022/11/22 10:57:39;;;;;;;13.45;10.38;;;;;;;-0.40;85.15;98907.89;1737458;82;21049;-80
2022/11/22 11:00:35;;;;;;;13.38;10.03;;;;;;;-0.47;85.41;98908.48;1716013;82;21136;-80
2022/11/22 11:03:28;;;;;;;12.37;9.25;;;;;;;-0.40;85.64;98913.59;1715771;82;21555;-79
2022/11/22 11:06:03;;;;;;;13.20;10.03;;;;;;;-0.32;85.44;98907.77;1732682;82;21090;-79
2022/11/22 11:08:43;;;;;;;14.85;10.18;;;;;;;-0.29;85.29;98906.22;1735563;82;21074;-79
2022/11/22 11:11:12;;;;;;;12.70;9.40;;;;;;;-0.33;85.69;98904.80;1729433;82;21078;-79
2022/11/22 11:13:45;;;;;;;13.83;10.35;;;;;;;-0.36;85.90;98899.83;1740748;82;22066;-79
2022/11/22 11:16:15;;;;;;;12.70;10.18;;;;;;;-0.32;85.81;98899.46;1725919;82;21029;-78
2022/11/22 11:18:58;;;;;;;12.75;9.88;;;;;;;-0.33;85.89;98893.91;1714592;82;21497;-78
2022/11/22 11:21:26;;;;;;;12.58;10.75;;;;;;;-0.31;85.83;98896.37;1744404;82;21114;-80
2022/11/22 11:23:52;;;;;;;11.48;9.23;;;;;;;-0.32;86.03;98903.37;1735604;82;21110;-80
2022/11/22 11:26:30;;;;;;;12.30;9.60;;;;;;;-0.20;85.75;98902.41;1725135;82;21044;-80
2022/11/22 11:29:20;;;;;;;14.07;10.28;;;;;;;-0.22;85.96;98903.48;1743825;82;21121;-78
2022/11/22 11:31:50;;;;;;;13.78;10.50;;;;;;;-0.24;86.11;98911.91;1722119;82;21038;-80
2022/11/22 11:34:26;;;;;;;12.35;10.20;;;;;;;-0.21;85.82;98915.12;1720334;82;21084;-80
2022/11/22 11:36:55;;;;;;;10.70;8.40;;;;;;;-0.23;85.78;98911.80;1739023;82;21097;-78
2022/11/22 11:39:25;;;;;;;12.33;9.35;;;;;;;-0.22;85.74;98913.45;1703790;83;21200;-76
2022/11/22 11:41:51;;;;;;;12.78;9.95;;;;;;;-0.22;85.61;98911.31;1729602;82;21064;-82
2022/11/22 11:44:34;;;;;;;10.85;8.80;;;;;;;-0.25;85.64;98919.37;1730696;82;21014;-77
2022/11/22 11:47:03;;;;;;;12.80;9.85;;;;;;;-0.26;85.67;98912.03;1730560;81;21058;-76
2022/11/22 11:49:33;;;;;;;10.98;9.23;;;;;;;-0.20;85.82;98917.25;1729907;82;21033;-79
2022/11/22 11:52:19;;;;;;;11.25;8.93;;;;;;;-0.15;85.48;98925.56;1724519;82;21089;-76
2022/11/22 11:54:48;;;;;;;10.38;8.35;;;;;;;-0.22;85.29;98917.84;1743732;82;21578;-79
2022/11/22 11:57:21;;;;;;;11.83;8.45;;;;;;;-0.28;85.64;98912.63;1735684;82;21045;-75
2022/11/22 11:59:49;;;;;;;12.33;9.13;;;;;;;-0.17;85.51;98913.11;1731949;82;25489;-75
2022/11/22 12:02:40;;;;;;;11.85;9.78;;;;;;;-0.16;85.67;98922.58;1724324;82;21093;-75